createdAt,value
2022-11-09T00:01:57.152Z,77.13
2022-11-09T00:04:27.817Z,77.12
2022-11-09T00:06:58.418Z,77.46
2022-11-09T00:09:29.037Z,77.49
2022-11-09T00:12:00.134Z,77.55
2022-11-09T00:14:30.745Z,77.60
2022-11-09T00:19:26.600Z,78.04
2022-11-09T00:21:57.297Z,78.24
2022-11-09T00:24:29.090Z,78.36
2022-11-09T00:27:00.523Z,78.36
2022-11-09T00:45:49.296Z,77.94
2022-11-09T00:48:19.785Z,78.23
2022-11-09T00:50:53.215Z,78.50
2022-11-09T00:53:24.665Z,79.01
2022-11-09T00:55:59.887Z,79.51
2022-11-09T00:58:32.124Z,79.92
2022-11-09T01:01:08.690Z,80.35
2022-11-09T01:03:39.335Z,80.60
2022-11-09T01:06:14.290Z,80.80
2022-11-09T01:08:47.421Z,81.02
2022-11-09T01:11:20.285Z,81.30
2022-11-09T01:13:51.193Z,81.66
2022-11-09T01:16:22.859Z,82.07
2022-11-09T01:18:56.967Z,82.43
2022-11-09T01:21:30.558Z,82.87
2022-11-09T01:24:03.853Z,83.04
2022-11-09T01:26:34.505Z,83.44
2022-11-09T01:29:05.160Z,83.72
2022-11-09T01:31:36.933Z,84.11
2022-11-09T01:34:07.401Z,84.32
2022-11-09T01:36:37.715Z,84.73
2022-11-09T01:39:08.165Z,84.55
2022-11-09T01:41:42.100Z,84.77
2022-11-09T01:44:14.576Z,84.95
2022-11-09T01:46:50.787Z,84.91
2022-11-09T01:49:28.770Z,85.26
2022-11-09T01:52:02.371Z,85.50
2022-11-09T01:54:37.762Z,85.53
2022-11-09T01:57:11.354Z,85.81
2022-11-09T01:59:45.922Z,85.66
2022-11-09T02:02:16.490Z,85.59
2022-11-09T02:04:50.657Z,85.65
2022-11-09T02:07:21.866Z,85.62
2022-11-09T02:09:56.981Z,85.64
2022-11-09T02:12:29.195Z,85.70
2022-11-09T02:15:00.183Z,85.86
2022-11-09T02:17:31.333Z,85.94
2022-11-09T02:20:03.646Z,85.98
2022-11-09T02:22:34.806Z,86.30
2022-11-09T02:25:05.580Z,86.25
2022-11-09T02:27:36.240Z,86.23
2022-11-09T02:30:09.548Z,86.54
2022-11-09T02:32:40.046Z,86.71
2022-11-09T02:35:12.038Z,86.67
2022-11-09T02:37:46.256Z,86.90
2022-11-09T02:40:20.360Z,86.81
2022-11-09T02:42:51.116Z,86.87
2022-11-09T02:45:21.637Z,86.87
2022-11-09T02:47:52.011Z,86.89
2022-11-09T02:50:22.546Z,86.95
2022-11-09T02:52:53.025Z,87.06
2022-11-09T02:55:23.989Z,87.12
2022-11-09T02:57:54.333Z,87.18
2022-11-09T03:00:24.703Z,87.41
2022-11-09T03:02:56.360Z,87.34
2022-11-09T03:05:27.183Z,87.34
2022-11-09T03:07:57.782Z,87.60
2022-11-09T03:10:28.264Z,87.76
2022-11-09T03:12:58.934Z,87.84
2022-11-09T03:15:30.078Z,87.91
2022-11-09T03:18:00.547Z,87.91
2022-11-09T03:20:30.953Z,88.00
2022-11-09T03:23:01.846Z,87.99
2022-11-09T03:25:32.717Z,88.13
2022-11-09T03:28:04.814Z,88.22
2022-11-09T03:30:36.438Z,88.07
2022-11-09T03:33:10.001Z,88.27
2022-11-09T03:35:40.640Z,88.41
2022-11-09T03:38:11.231Z,88.46
2022-11-09T03:40:42.252Z,88.49
2022-11-09T03:43:12.652Z,88.46
2022-11-09T03:45:44.312Z,88.47
2022-11-09T03:48:14.829Z,88.45
2022-11-09T03:50:45.183Z,88.49
2022-11-09T03:53:15.924Z,88.58
2022-11-09T03:55:46.520Z,88.64
2022-11-09T03:58:17.016Z,88.55
2022-11-09T04:00:47.406Z,88.70
2022-11-09T04:03:18.110Z,88.77
2022-11-09T04:05:48.828Z,88.91
2022-11-09T04:08:19.233Z,88.85
2022-11-09T04:10:49.692Z,88.77
2022-11-09T04:13:20.345Z,88.82
2022-11-09T04:15:51.073Z,88.97
2022-11-09T04:18:21.495Z,88.97
2022-11-09T04:20:51.909Z,88.94
2022-11-09T04:23:22.731Z,88.92
2022-11-09T04:25:53.310Z,88.83
2022-11-09T04:28:23.837Z,88.89
2022-11-09T04:30:54.338Z,88.92
2022-11-09T04:33:24.687Z,89.04
2022-11-09T04:35:55.103Z,89.24
2022-11-09T04:38:25.405Z,89.26
2022-11-09T04:40:55.828Z,89.28
2022-11-09T04:43:26.194Z,89.26
2022-11-09T04:45:56.758Z,89.38
2022-11-09T04:48:27.146Z,89.31
2022-11-09T04:51:02.593Z,89.66
2022-11-09T04:53:33.332Z,89.62
2022-11-09T04:56:03.967Z,89.53
2022-11-09T04:58:34.683Z,89.63
2022-11-09T05:01:09.401Z,89.60
2022-11-09T05:03:40.311Z,89.65
2022-11-09T05:06:24.761Z,89.78
2022-11-09T05:08:55.507Z,89.83
2022-11-09T05:11:26.053Z,89.63
2022-11-09T05:13:56.411Z,89.78
2022-11-09T05:16:27.389Z,89.79
2022-11-09T05:18:57.827Z,89.85
2022-11-09T05:21:28.229Z,89.84
2022-11-09T05:24:01.402Z,90.03
2022-11-09T05:26:33.369Z,89.95
2022-11-09T05:29:05.027Z,90.06
2022-11-09T05:31:35.752Z,90.00
2022-11-09T05:34:07.460Z,90.23
2022-11-09T05:36:37.821Z,90.19
2022-11-09T05:39:08.481Z,90.15
2022-11-09T05:41:38.926Z,90.08
2022-11-09T05:44:09.315Z,90.31
2022-11-09T05:46:39.783Z,90.32
2022-11-09T05:49:10.284Z,90.42
2022-11-09T05:51:40.712Z,90.46
2022-11-09T05:54:11.152Z,90.36
2022-11-09T05:56:41.507Z,90.57
2022-11-09T05:59:12.173Z,90.59
2022-11-09T06:01:42.607Z,90.51
2022-11-09T06:04:13.057Z,90.57
2022-11-09T06:06:45.506Z,90.69
2022-11-09T06:09:16.001Z,90.63
2022-11-09T06:11:46.440Z,90.59
2022-11-09T06:14:16.880Z,90.73
2022-11-09T06:16:47.233Z,90.67
2022-11-09T06:19:17.714Z,90.70
2022-11-09T06:21:48.041Z,90.76
2022-11-09T06:24:18.490Z,90.68
2022-11-09T06:26:48.912Z,91.06
2022-11-09T06:29:19.751Z,90.92
2022-11-09T06:31:51.347Z,90.91
2022-11-09T06:34:21.902Z,91.04
2022-11-09T06:36:52.417Z,91.10
2022-11-09T06:39:23.267Z,91.17
2022-11-09T06:41:53.647Z,91.12
2022-11-09T06:44:24.117Z,91.14
2022-11-09T06:46:54.482Z,91.11
2022-11-09T06:49:25.076Z,91.15
2022-11-09T06:51:55.475Z,91.23
2022-11-09T06:54:25.957Z,91.36
2022-11-09T06:56:57.497Z,91.47
2022-11-09T06:59:27.923Z,91.36
2022-11-09T07:02:01.624Z,91.36
2022-11-09T07:04:32.693Z,91.45
2022-11-09T07:07:03.852Z,91.33
2022-11-09T07:09:34.338Z,91.25
2022-11-09T07:12:05.174Z,91.34
2022-11-09T07:14:35.648Z,91.46
2022-11-09T07:17:06.054Z,91.45
2022-11-09T07:19:36.532Z,91.49
2022-11-09T07:22:06.997Z,91.54
2022-11-09T07:24:37.900Z,91.50
2022-11-09T07:27:08.879Z,91.57
2022-11-09T07:29:39.755Z,91.53
2022-11-09T07:32:10.206Z,91.55
2022-11-09T07:34:40.662Z,91.56
2022-11-09T07:37:11.111Z,91.57
2022-11-09T07:39:42.102Z,91.45
2022-11-09T07:42:12.589Z,91.53
2022-11-09T07:44:44.716Z,91.40
2022-11-09T07:47:18.304Z,91.41
2022-11-09T07:49:48.987Z,91.38
2022-11-09T07:52:19.338Z,91.35
2022-11-09T07:54:52.266Z,91.34
2022-11-09T07:57:24.653Z,91.31
2022-11-09T07:59:58.059Z,91.27
2022-11-09T08:02:31.249Z,91.41
2022-11-09T08:05:03.836Z,91.35
2022-11-09T08:07:34.355Z,91.53
2022-11-09T08:10:06.552Z,91.41
2022-11-09T08:12:38.164Z,91.41
2022-11-09T08:15:11.901Z,91.40
2022-11-09T08:17:44.710Z,91.42
2022-11-09T08:20:17.907Z,91.32
2022-11-09T08:22:51.244Z,91.48
2022-11-09T08:25:21.885Z,91.64
2022-11-09T08:27:54.001Z,91.65
2022-11-09T08:30:26.397Z,91.60
2022-11-09T08:32:59.071Z,91.74
2022-11-09T08:35:29.933Z,91.72
2022-11-09T08:38:04.198Z,91.72
2022-11-09T08:40:36.939Z,91.77
2022-11-09T08:43:11.537Z,91.79
2022-11-09T08:45:43.723Z,91.89
2022-11-09T08:48:17.634Z,91.86
2022-11-09T08:50:55.013Z,91.86
2022-11-09T08:53:28.680Z,91.82
2022-11-09T09:02:59.279Z,91.56
2022-11-09T09:05:29.760Z,91.76
2022-11-09T09:08:01.408Z,91.89
2022-11-09T09:10:32.492Z,91.68
2022-11-09T09:13:03.120Z,91.34
2022-11-09T09:15:33.916Z,91.17
2022-11-09T09:18:05.277Z,91.03
2022-11-09T09:20:35.680Z,90.99
2022-11-09T09:23:06.303Z,90.72
2022-11-09T09:25:36.733Z,90.76
2022-11-09T09:28:07.841Z,90.66
2022-11-09T09:30:38.575Z,90.62
2022-11-09T09:33:08.987Z,90.47
2022-11-09T09:35:39.436Z,90.56
2022-11-09T09:38:09.804Z,90.60
2022-11-09T09:40:51.296Z,90.64
2022-11-09T09:43:28.604Z,90.77
2022-11-09T09:46:00.839Z,90.94
2022-11-09T09:48:36.711Z,90.84
2022-11-09T09:51:12.529Z,90.70
2022-11-09T09:53:46.537Z,90.82
2022-11-09T09:56:21.982Z,90.68
2022-11-09T09:58:56.973Z,90.56
2022-11-09T10:01:35.453Z,90.45
2022-11-09T10:04:06.452Z,90.37
2022-11-09T10:06:44.632Z,90.13
2022-11-09T10:09:24.663Z,90.24
2022-11-09T10:12:01.582Z,90.24
2022-11-09T10:14:44.583Z,90.16
2022-11-09T10:17:23.268Z,90.18
2022-11-09T10:20:01.158Z,90.14
2022-11-09T10:22:38.536Z,90.00
2022-11-09T10:28:13.031Z,89.76
2022-11-09T10:30:44.066Z,89.61
2022-11-09T10:33:21.238Z,89.53
2022-11-09T10:35:56.454Z,89.71
2022-11-09T10:38:29.197Z,89.80
2022-11-09T10:41:28.214Z,89.78
2022-11-09T10:44:18.976Z,89.58
2022-11-09T10:47:11.209Z,89.36
2022-11-09T10:50:15.046Z,88.98
2022-11-09T10:53:18.070Z,88.52
2022-11-09T10:56:20.722Z,88.08
2022-11-09T11:02:05.805Z,87.67
2022-11-09T11:04:55.180Z,87.12
2022-11-09T11:07:44.851Z,86.29
2022-11-09T11:10:34.249Z,85.83
2022-11-09T11:13:25.673Z,85.40
2022-11-09T11:16:26.677Z,84.88
2022-11-09T11:19:36.897Z,85.10
2022-11-09T11:22:27.507Z,84.87
2022-11-09T11:25:22.692Z,84.73
2022-11-09T11:28:19.921Z,84.37
2022-11-09T11:31:14.089Z,84.42
2022-11-09T11:34:04.124Z,84.60
2022-11-09T11:37:02.372Z,84.71
2022-11-09T11:40:02.323Z,84.95
2022-11-09T11:43:28.749Z,84.88
2022-11-09T11:46:22.407Z,84.47
2022-11-09T11:49:27.700Z,84.30
2022-11-09T11:52:23.790Z,83.90
2022-11-09T11:55:31.194Z,83.79
2022-11-09T11:58:30.664Z,83.40
2022-11-09T12:01:32.892Z,83.32
2022-11-09T12:04:45.074Z,83.05
2022-11-09T12:07:39.188Z,82.93
2022-11-09T12:10:44.551Z,82.21
2022-11-09T12:13:49.609Z,81.45
2022-11-09T12:16:45.520Z,80.53
2022-11-09T12:20:11.312Z,80.79
2022-11-09T12:23:15.421Z,81.07
2022-11-09T12:26:16.208Z,80.58
2022-11-09T12:29:14.973Z,80.44
2022-11-09T12:32:11.581Z,79.01
2022-11-09T12:35:14.386Z,77.78
2022-11-09T12:38:05.981Z,78.10
2022-11-09T12:41:00.427Z,77.80
2022-11-09T12:43:53.372Z,77.37
2022-11-09T12:46:45.590Z,77.35
2022-11-09T12:49:38.383Z,76.89
2022-11-09T12:52:29.992Z,77.40
2022-11-09T12:55:22.197Z,77.58
2022-11-09T12:58:23.378Z,77.42
2022-11-09T13:01:15.346Z,77.03
2022-11-09T13:04:05.463Z,77.45
2022-11-09T13:07:29.441Z,77.80
2022-11-09T13:10:31.662Z,78.02
2022-11-09T13:13:26.140Z,77.64
2022-11-09T13:16:34.627Z,77.80
2022-11-09T13:19:54.310Z,77.73
2022-11-09T13:23:02.961Z,78.03
2022-11-09T13:25:53.871Z,77.78
2022-11-09T13:29:13.460Z,77.83
2022-11-09T13:32:24.868Z,77.92
2022-11-09T13:35:44.860Z,77.95
2022-11-09T13:38:34.904Z,77.80
2022-11-09T13:41:47.525Z,77.57
2022-11-09T13:44:38.838Z,78.02
2022-11-09T13:47:34.889Z,77.74
2022-11-09T13:50:25.417Z,78.01
2022-11-09T13:56:24.771Z,77.82
2022-11-09T13:59:22.091Z,77.39
2022-11-09T14:02:20.689Z,77.31
2022-11-09T14:05:27.324Z,77.71
2022-11-09T14:08:22.833Z,77.76
2022-11-09T14:11:31.633Z,78.06
2022-11-09T14:14:50.181Z,78.16
2022-11-09T14:17:46.260Z,78.43
2022-11-09T14:20:41.638Z,78.42
2022-11-09T14:23:33.149Z,78.46
2022-11-09T14:26:25.364Z,78.71
2022-11-09T14:29:23.548Z,78.86
2022-11-09T14:32:31.342Z,79.21
2022-11-09T14:35:26.955Z,79.39
2022-11-09T14:38:23.487Z,79.48
2022-11-09T14:41:22.814Z,79.80
2022-11-09T14:44:17.761Z,79.90
2022-11-09T14:47:07.584Z,80.16
2022-11-09T14:49:56.748Z,80.39
2022-11-09T14:52:46.017Z,80.22
2022-11-09T14:55:36.689Z,79.92
2022-11-09T14:58:25.971Z,80.19
2022-11-09T15:01:24.148Z,80.14
2022-11-09T15:04:16.957Z,80.26
2022-11-09T15:07:07.007Z,80.42
2022-11-09T15:09:58.613Z,80.45
2022-11-09T15:12:52.192Z,80.73
2022-11-09T15:15:41.497Z,80.67
2022-11-09T15:18:34.169Z,80.97
2022-11-09T15:21:36.482Z,81.09
2022-11-09T15:24:28.100Z,81.18
2022-11-09T15:27:34.817Z,81.26
2022-11-09T15:30:32.993Z,81.66
2022-11-09T15:33:26.551Z,81.75
2022-11-09T15:36:28.107Z,82.11
2022-11-09T15:39:20.131Z,82.36
2022-11-09T15:42:12.556Z,82.68
2022-11-09T15:45:02.001Z,83.01
2022-11-09T15:47:56.780Z,83.22
2022-11-09T15:50:46.035Z,83.41
2022-11-09T15:53:35.164Z,83.62
2022-11-09T15:56:25.623Z,83.89
2022-11-09T15:59:19.760Z,83.97
2022-11-09T16:02:09.740Z,84.23
2022-11-09T16:04:59.077Z,84.34
2022-11-09T16:07:52.367Z,84.48
2022-11-09T16:10:43.387Z,84.39
2022-11-09T16:13:32.273Z,84.53
2022-11-09T16:16:22.552Z,84.56
2022-11-09T16:19:15.629Z,84.67
2022-11-09T16:22:03.317Z,84.65
2022-11-09T16:24:52.182Z,84.64
2022-11-09T16:27:50.895Z,84.80
2022-11-09T16:30:45.449Z,84.75
2022-11-09T16:33:35.685Z,84.72
2022-11-09T16:36:26.547Z,84.89
2022-11-09T16:39:17.123Z,85.07
2022-11-09T16:42:08.981Z,85.05
2022-11-09T16:45:00.197Z,85.19
2022-11-09T16:47:52.108Z,85.15
2022-11-09T16:50:43.692Z,85.29
2022-11-09T16:53:33.035Z,85.27
2022-11-09T16:56:22.332Z,85.32
2022-11-09T16:59:12.057Z,85.45
2022-11-09T17:02:01.672Z,85.51
2022-11-09T17:04:50.933Z,85.50
2022-11-09T17:07:42.780Z,85.49
2022-11-09T17:10:32.514Z,85.76
2022-11-09T17:13:22.207Z,85.86
2022-11-09T17:16:17.975Z,85.98
2022-11-09T17:19:07.262Z,86.02
2022-11-09T17:21:56.240Z,86.10
2022-11-09T17:24:45.280Z,86.06
2022-11-09T17:27:36.298Z,86.10
2022-11-09T17:30:37.214Z,86.16
2022-11-09T17:33:26.509Z,86.11
2022-11-09T17:36:25.926Z,85.92
2022-11-09T17:39:26.973Z,86.27
2022-11-09T17:42:16.227Z,86.48
2022-11-09T17:45:06.676Z,86.53
2022-11-09T17:47:55.930Z,86.56
2022-11-09T17:50:45.044Z,86.74
2022-11-09T17:53:34.343Z,86.85
2022-11-09T17:56:23.560Z,86.86
2022-11-09T17:59:12.738Z,87.11
2022-11-09T18:02:02.342Z,87.22
2022-11-09T18:04:51.345Z,87.27
2022-11-09T18:07:40.320Z,87.29
2022-11-09T18:10:29.434Z,87.29
2022-11-09T18:13:18.943Z,87.30
2022-11-09T18:16:17.287Z,87.44
2022-11-09T18:19:07.540Z,87.41
2022-11-09T18:21:56.976Z,87.44
2022-11-09T18:24:51.800Z,87.40
2022-11-09T18:27:48.240Z,87.53
2022-11-09T18:30:41.533Z,87.73
2022-11-09T18:33:30.548Z,87.76
2022-11-09T18:36:21.437Z,87.47
2022-11-09T18:39:10.488Z,87.53
2022-11-09T18:42:00.391Z,87.54
2022-11-09T18:44:49.363Z,87.73
2022-11-09T18:47:39.217Z,87.84
2022-11-09T18:50:28.618Z,87.87
2022-11-09T18:53:17.905Z,87.88
2022-11-09T18:56:09.375Z,87.90
2022-11-09T18:58:59.878Z,88.00
2022-11-09T19:01:48.663Z,88.02
2022-11-09T19:04:37.826Z,87.89
2022-11-09T19:07:28.749Z,87.68
2022-11-09T19:10:20.125Z,87.62
2022-11-09T19:13:08.884Z,87.63
2022-11-09T19:16:02.666Z,87.78
2022-11-09T19:18:51.676Z,87.88
2022-11-09T19:21:45.846Z,87.65
2022-11-09T19:24:35.088Z,87.92
2022-11-09T19:27:25.067Z,87.73
2022-11-09T19:30:14.626Z,87.77
2022-11-09T19:33:04.438Z,87.76
2022-11-09T19:36:23.128Z,87.66
2022-11-09T19:39:04.562Z,87.55
2022-11-09T19:41:54.989Z,87.69
2022-11-09T19:44:43.966Z,87.71
2022-11-09T19:47:40.810Z,87.55
2022-11-09T19:50:29.823Z,87.69
2022-11-09T19:53:19.498Z,87.61
2022-11-09T19:56:11.521Z,87.64
2022-11-09T19:59:01.842Z,87.48
2022-11-09T20:01:51.216Z,87.48
2022-11-09T20:04:40.517Z,87.17
2022-11-09T20:07:30.431Z,86.91
2022-11-09T20:10:21.376Z,87.03
2022-11-09T20:13:10.474Z,86.84
2022-11-09T20:16:03.749Z,86.88
2022-11-09T20:18:52.902Z,87.05
2022-11-09T20:21:42.592Z,87.04
2022-11-09T20:24:31.799Z,87.09
2022-11-09T20:27:20.924Z,86.94
2022-11-09T20:30:13.503Z,87.05
2022-11-09T20:33:04.720Z,87.37
2022-11-09T20:35:55.539Z,87.62
2022-11-09T20:38:44.708Z,87.61
2022-11-09T20:41:34.247Z,87.39
2022-11-09T20:44:23.411Z,87.21
2022-11-09T20:47:12.342Z,87.00
2022-11-09T20:50:01.384Z,87.04
2022-11-09T20:52:51.658Z,87.32
2022-11-09T20:55:41.328Z,87.48
2022-11-09T20:58:30.365Z,87.50
2022-11-09T21:01:20.632Z,87.34
2022-11-09T21:04:09.918Z,87.31
2022-11-09T21:06:59.372Z,87.16
2022-11-09T21:09:49.056Z,87.44
2022-11-09T21:12:39.020Z,87.40
2022-11-09T21:15:28.760Z,87.36
2022-11-09T21:18:18.038Z,87.29
2022-11-09T21:21:09.212Z,87.30
2022-11-09T21:24:16.063Z,87.39
2022-11-09T21:27:31.018Z,87.45
2022-11-09T21:30:20.694Z,87.62
2022-11-09T21:33:09.806Z,87.79
2022-11-09T21:35:59.111Z,87.67
2022-11-09T21:38:48.689Z,87.84
2022-11-09T21:41:40.870Z,87.92
2022-11-09T21:44:32.636Z,88.04
2022-11-09T21:47:21.692Z,88.03
2022-11-09T21:50:12.997Z,88.15
2022-11-09T21:53:02.668Z,88.35
2022-11-09T21:55:51.714Z,88.34
2022-11-09T21:58:40.693Z,88.56
2022-11-09T22:01:29.673Z,88.59
2022-11-09T22:04:19.085Z,88.78
2022-11-09T22:07:09.346Z,88.59
2022-11-09T22:10:10.048Z,88.82
2022-11-09T22:13:31.155Z,88.88
2022-11-09T22:16:20.710Z,88.63
2022-11-09T22:19:27.493Z,88.67
2022-11-09T22:22:17.015Z,88.60
2022-11-09T22:25:07.055Z,88.80
2022-11-09T22:27:56.513Z,88.68
2022-11-09T22:30:45.522Z,88.80
2022-11-09T22:33:35.142Z,89.00
2022-11-09T22:36:24.276Z,89.04
2022-11-09T22:39:13.414Z,89.45
2022-11-09T22:42:02.406Z,89.16
2022-11-09T22:44:51.581Z,89.10
2022-11-09T22:47:40.916Z,89.11
2022-11-09T22:50:30.170Z,89.06
2022-11-09T22:53:19.470Z,89.18
2022-11-09T22:56:10.338Z,89.29
2022-11-09T22:58:59.504Z,89.51
2022-11-09T23:01:49.266Z,89.66
2022-11-09T23:04:38.521Z,89.93
2022-11-09T23:07:30.373Z,89.93
2022-11-09T23:10:22.637Z,89.81
2022-11-09T23:13:13.661Z,89.52
2022-11-09T23:16:03.442Z,89.63
2022-11-09T23:18:55.337Z,89.70
2022-11-09T23:21:44.429Z,89.84
2022-11-09T23:24:50.735Z,89.94
2022-11-09T23:27:39.914Z,89.93
2022-11-09T23:30:29.007Z,89.96
2022-11-09T23:33:18.558Z,90.11
2022-11-09T23:36:09.923Z,90.30
2022-11-09T23:38:59.051Z,90.48
2022-11-09T23:41:48.364Z,90.38
2022-11-09T23:44:37.193Z,90.19
2022-11-09T23:47:26.376Z,90.09
2022-11-09T23:50:15.351Z,90.12
2022-11-09T23:53:04.248Z,90.13
2022-11-09T23:55:53.184Z,90.16
2022-11-09T23:58:42.224Z,90.12
